createdAt,value
2022-08-29T00:02:15.309Z,18.20
2022-08-29T00:04:43.208Z,18.30
2022-08-29T00:07:12.338Z,18.30
2022-08-29T00:09:40.072Z,18.20
2022-08-29T00:12:07.920Z,18.20
2022-08-29T00:14:35.881Z,18.20
2022-08-29T00:17:03.764Z,18.20
2022-08-29T00:19:31.700Z,18.20
2022-08-29T00:21:59.686Z,18.20
2022-08-29T00:24:28.840Z,18.20
2022-08-29T00:26:56.663Z,18.10
2022-08-29T00:29:24.410Z,18.10
2022-08-29T00:31:52.495Z,18.10
2022-08-29T00:34:20.507Z,18.00
2022-08-29T00:36:49.270Z,18.00
2022-08-29T00:39:17.174Z,18.00
2022-08-29T00:41:48.077Z,17.90
2022-08-29T00:44:16.732Z,17.90
2022-08-29T00:46:50.832Z,17.80
2022-08-29T00:49:36.848Z,17.80
2022-08-29T00:52:07.504Z,17.80
2022-08-29T00:54:35.885Z,17.80
2022-08-29T00:57:05.572Z,17.80
2022-08-29T00:59:35.832Z,17.80
2022-08-29T01:02:04.926Z,17.80
2022-08-29T01:04:33.193Z,17.70
2022-08-29T01:07:01.446Z,17.80
2022-08-29T01:09:30.057Z,17.70
2022-08-29T01:12:15.570Z,17.70
2022-08-29T01:14:47.829Z,17.80
2022-08-29T01:17:17.457Z,17.70
2022-08-29T01:19:48.143Z,17.70
2022-08-29T01:22:43.148Z,17.60
2022-08-29T01:25:15.104Z,17.70
2022-08-29T01:27:44.821Z,17.70
2022-08-29T01:30:15.034Z,17.60
2022-08-29T01:32:42.733Z,17.60
2022-08-29T01:35:10.937Z,17.50
2022-08-29T01:37:39.505Z,17.50
2022-08-29T01:40:08.054Z,17.50
2022-08-29T01:42:37.519Z,17.50
2022-08-29T01:45:09.797Z,17.60
2022-08-29T01:47:38.734Z,17.50
2022-08-29T01:50:07.667Z,17.40
2022-08-29T01:52:36.070Z,17.40
2022-08-29T01:55:06.229Z,17.40
2022-08-29T01:57:34.029Z,17.30
2022-08-29T02:00:04.119Z,17.20
2022-08-29T02:02:32.693Z,17.20
2022-08-29T02:05:00.560Z,17.10
2022-08-29T02:07:29.444Z,17.10
2022-08-29T02:09:57.203Z,17.10
2022-08-29T02:12:26.186Z,17.00
2022-08-29T02:14:53.992Z,17.10
2022-08-29T02:17:23.886Z,17.10
2022-08-29T02:19:51.819Z,17.20
2022-08-29T02:22:19.589Z,17.30
2022-08-29T02:24:47.312Z,17.20
2022-08-29T02:27:15.030Z,17.20
2022-08-29T02:29:42.990Z,17.10
2022-08-29T02:32:12.802Z,17.10
2022-08-29T02:34:44.535Z,17.00
2022-08-29T02:37:15.228Z,17.00
2022-08-29T02:39:42.986Z,17.00
2022-08-29T02:42:10.758Z,17.00
2022-08-29T02:44:38.524Z,17.10
2022-08-29T02:47:08.954Z,17.10
2022-08-29T02:49:36.815Z,17.10
2022-08-29T02:52:08.428Z,17.10
2022-08-29T02:54:36.594Z,17.20
2022-08-29T02:57:04.382Z,17.20
2022-08-29T02:59:32.303Z,17.30
2022-08-29T03:02:00.184Z,17.40
2022-08-29T03:04:28.118Z,17.70
2022-08-29T03:06:55.857Z,18.00
2022-08-29T03:09:25.114Z,18.20
2022-08-29T03:11:56.040Z,18.10
2022-08-29T03:14:24.191Z,18.10
2022-08-29T03:16:52.069Z,18.10
2022-08-29T03:19:19.854Z,17.80
2022-08-29T03:21:47.621Z,17.80
2022-08-29T03:24:15.556Z,18.00
2022-08-29T03:26:44.941Z,18.00
2022-08-29T03:29:22.634Z,18.20
2022-08-29T03:31:50.431Z,18.30
2022-08-29T03:34:18.163Z,18.30
2022-08-29T03:36:46.041Z,18.70
2022-08-29T03:39:13.753Z,18.30
2022-08-29T03:41:52.000Z,18.30
2022-08-29T03:44:21.358Z,17.90
2022-08-29T03:46:49.137Z,17.80
2022-08-29T03:49:17.369Z,17.60
2022-08-29T03:51:45.078Z,17.20
2022-08-29T03:54:12.798Z,17.00
2022-08-29T03:56:40.552Z,16.90
2022-08-29T03:59:08.763Z,16.80
2022-08-29T04:01:38.097Z,17.00
2022-08-29T04:04:06.305Z,16.90
2022-08-29T04:06:34.492Z,16.90
2022-08-29T04:09:02.294Z,17.30
2022-08-29T04:11:30.030Z,17.30
2022-08-29T04:13:57.742Z,17.40
2022-08-29T04:16:30.846Z,17.30
2022-08-29T04:19:00.495Z,17.60
2022-08-29T04:21:28.208Z,17.60
2022-08-29T04:23:56.401Z,17.60
2022-08-29T04:26:36.434Z,17.80
2022-08-29T04:29:05.048Z,17.70
2022-08-29T04:31:32.828Z,17.60
2022-08-29T04:34:02.376Z,17.30
2022-08-29T04:36:30.102Z,17.20
2022-08-29T04:38:57.915Z,17.30
2022-08-29T04:41:25.656Z,17.10
2022-08-29T04:43:53.474Z,17.20
2022-08-29T04:46:23.986Z,17.10
2022-08-29T04:48:52.556Z,16.90
2022-08-29T04:51:22.095Z,16.90
2022-08-29T04:53:51.314Z,16.70
2022-08-29T04:56:19.398Z,16.70
2022-08-29T04:58:47.581Z,16.60
2022-08-29T05:01:16.610Z,16.50
2022-08-29T05:03:44.735Z,16.50
2022-08-29T05:06:14.702Z,16.50
2022-08-29T05:08:45.781Z,16.40
2022-08-29T05:11:14.549Z,16.20
2022-08-29T05:13:52.008Z,16.30
2022-08-29T05:16:20.204Z,16.30
2022-08-29T05:18:48.430Z,16.20
2022-08-29T05:21:23.627Z,16.30
2022-08-29T05:23:56.283Z,16.30
2022-08-29T05:26:24.458Z,16.30
2022-08-29T05:28:52.424Z,16.20
2022-08-29T05:31:22.158Z,16.00
2022-08-29T05:33:50.281Z,16.10
2022-08-29T05:36:18.507Z,16.10
2022-08-29T05:38:46.239Z,16.20
2022-08-29T05:41:15.336Z,16.20
2022-08-29T05:43:43.027Z,16.20
2022-08-29T05:46:11.312Z,16.20
2022-08-29T05:48:41.115Z,16.20
2022-08-29T05:51:08.883Z,16.30
2022-08-29T05:53:36.576Z,16.30
2022-08-29T05:56:04.584Z,16.30
2022-08-29T05:58:33.618Z,16.30
2022-08-29T06:01:01.319Z,16.40
2022-08-29T06:03:31.427Z,16.50
2022-08-29T06:05:59.239Z,16.60
2022-08-29T06:08:26.975Z,16.60
2022-08-29T06:10:54.682Z,16.70
2022-08-29T06:13:22.389Z,16.80
2022-08-29T06:15:51.477Z,16.80
2022-08-29T06:18:19.279Z,17.00
2022-08-29T06:20:55.162Z,17.00
2022-08-29T06:23:23.501Z,17.10
2022-08-29T06:25:56.423Z,17.10
2022-08-29T06:28:24.280Z,17.20
2022-08-29T06:30:53.444Z,17.30
2022-08-29T06:33:21.278Z,17.30
2022-08-29T06:35:49.015Z,17.40
2022-08-29T06:38:17.084Z,17.50
2022-08-29T06:40:44.953Z,17.60
2022-08-29T06:43:12.703Z,17.60
2022-08-29T06:45:41.226Z,17.70
2022-08-29T06:48:10.922Z,17.80
2022-08-29T06:50:45.533Z,17.90
2022-08-29T06:53:26.880Z,17.90
2022-08-29T06:55:55.451Z,18.10
2022-08-29T06:58:23.160Z,18.20
2022-08-29T07:00:50.886Z,18.40
2022-08-29T07:03:20.360Z,18.60
2022-08-29T07:05:51.925Z,18.80
2022-08-29T07:08:19.943Z,18.90
2022-08-29T07:10:47.668Z,19.00
2022-08-29T07:13:16.004Z,19.10
2022-08-29T07:15:43.910Z,19.20
2022-08-29T07:18:12.070Z,19.30
2022-08-29T07:20:41.242Z,19.50
2022-08-29T07:23:09.285Z,19.60
2022-08-29T07:25:38.400Z,19.70
2022-08-29T07:28:06.519Z,19.70
2022-08-29T07:30:35.668Z,19.80
2022-08-29T07:33:03.538Z,19.90
2022-08-29T07:35:31.571Z,20.10
2022-08-29T07:38:02.028Z,20.10
2022-08-29T07:40:29.873Z,20.20
2022-08-29T07:42:57.635Z,20.30
2022-08-29T07:45:25.390Z,20.40
2022-08-29T07:47:53.165Z,20.40
2022-08-29T07:50:20.950Z,20.60
2022-08-29T07:52:48.769Z,20.60
2022-08-29T07:55:18.220Z,20.80
2022-08-29T07:57:48.370Z,20.80
2022-08-29T08:00:16.208Z,20.90
2022-08-29T08:02:43.962Z,20.80
2022-08-29T08:05:11.715Z,20.80
2022-08-29T08:07:40.288Z,20.70
2022-08-29T08:10:09.521Z,20.60
2022-08-29T08:12:38.600Z,20.60
2022-08-29T08:15:06.780Z,20.80
2022-08-29T08:17:34.562Z,21.00
2022-08-29T08:20:02.639Z,21.20
2022-08-29T08:22:30.351Z,21.40
2022-08-29T08:24:58.062Z,21.40
2022-08-29T08:27:26.014Z,21.40
2022-08-29T08:29:55.516Z,21.40
2022-08-29T08:32:23.430Z,21.20
2022-08-29T08:35:00.021Z,21.20
2022-08-29T08:37:28.240Z,21.20
2022-08-29T08:39:57.076Z,21.30
2022-08-29T08:42:28.744Z,21.50
2022-08-29T08:45:05.682Z,21.70
2022-08-29T08:47:35.034Z,21.90
2022-08-29T08:50:05.841Z,22.00
2022-08-29T08:52:38.302Z,22.00
2022-08-29T08:55:10.331Z,21.90
2022-08-29T08:57:40.993Z,22.10
2022-08-29T09:00:12.175Z,22.30
2022-08-29T09:02:45.348Z,22.50
2022-08-29T09:05:27.807Z,22.80
2022-08-29T09:08:01.701Z,22.90
2022-08-29T09:10:34.859Z,23.20
2022-08-29T09:13:10.559Z,23.40
2022-08-29T09:15:42.132Z,23.50
2022-08-29T09:18:13.469Z,23.70
2022-08-29T09:20:42.512Z,23.90
2022-08-29T09:23:13.919Z,24.20
2022-08-29T09:25:41.737Z,24.10
2022-08-29T09:28:10.064Z,24.10
2022-08-29T09:30:39.186Z,24.00
2022-08-29T09:33:09.504Z,24.00
2022-08-29T09:35:39.599Z,24.30
2022-08-29T09:38:08.277Z,24.60
2022-08-29T09:40:48.404Z,24.70
2022-08-29T09:43:21.262Z,24.50
2022-08-29T09:46:08.578Z,24.90
2022-08-29T09:48:39.297Z,25.10
2022-08-29T09:51:10.054Z,25.40
2022-08-29T09:53:37.870Z,25.30
2022-08-29T09:56:06.282Z,25.40
2022-08-29T09:58:39.892Z,25.60
2022-08-29T10:01:11.732Z,25.80
2022-08-29T10:03:42.711Z,25.80
2022-08-29T10:06:13.862Z,25.70
2022-08-29T10:08:42.600Z,25.80
2022-08-29T10:11:20.528Z,26.00
2022-08-29T10:13:51.656Z,26.20
2022-08-29T10:16:24.494Z,26.20
2022-08-29T10:18:55.811Z,26.00
2022-08-29T10:21:29.201Z,25.90
2022-08-29T10:24:03.541Z,25.80
2022-08-29T10:26:35.563Z,26.10
2022-08-29T10:29:09.282Z,26.50
2022-08-29T10:31:41.869Z,26.40
2022-08-29T10:34:17.595Z,26.60
2022-08-29T10:36:47.877Z,26.70
2022-08-29T10:39:30.579Z,26.90
2022-08-29T10:42:00.446Z,27.00
2022-08-29T10:44:32.168Z,27.00
2022-08-29T10:47:06.781Z,27.30
2022-08-29T10:49:46.698Z,27.40
2022-08-29T10:52:19.052Z,27.40
2022-08-29T10:54:52.026Z,27.90
2022-08-29T10:57:31.714Z,28.30
2022-08-29T11:00:04.595Z,28.30
2022-08-29T11:02:35.706Z,28.50
2022-08-29T11:05:09.195Z,28.70
2022-08-29T11:07:40.743Z,29.00
2022-08-29T11:10:11.859Z,28.90
2022-08-29T11:12:45.009Z,28.60
2022-08-29T11:15:17.977Z,28.70
2022-08-29T11:17:47.723Z,29.00
2022-08-29T11:20:19.552Z,28.70
2022-08-29T11:22:49.654Z,28.70
2022-08-29T11:25:18.250Z,28.00
2022-08-29T11:27:53.498Z,28.00
2022-08-29T11:30:23.702Z,27.90
2022-08-29T11:32:57.366Z,28.10
2022-08-29T11:35:30.125Z,28.60
2022-08-29T11:38:12.818Z,28.60
2022-08-29T11:43:42.036Z,28.80
2022-08-29T11:46:11.511Z,28.70
2022-08-29T11:48:40.878Z,28.60
2022-08-29T11:51:27.150Z,28.80
2022-08-29T11:53:56.467Z,29.10
2022-08-29T11:56:27.759Z,29.40
2022-08-29T11:58:56.446Z,29.70
2022-08-29T12:01:42.913Z,29.70
2022-08-29T12:04:12.035Z,29.50
2022-08-29T12:06:55.307Z,29.10
2022-08-29T12:09:32.706Z,29.40
2022-08-29T12:12:15.330Z,29.10
2022-08-29T12:14:44.386Z,29.20
2022-08-29T12:17:58.278Z,29.00
2022-08-29T12:20:33.600Z,28.80
2022-08-29T12:23:04.541Z,28.60
2022-08-29T12:26:09.622Z,29.10
2022-08-29T12:28:49.121Z,29.70
2022-08-29T12:31:32.963Z,29.80
2022-08-29T12:34:05.589Z,30.10
2022-08-29T12:36:38.783Z,30.70
2022-08-29T12:39:20.182Z,30.40
2022-08-29T12:41:53.699Z,30.50
2022-08-29T12:44:25.537Z,30.50
2022-08-29T12:46:55.896Z,30.70
2022-08-29T12:49:25.357Z,31.10
2022-08-29T12:51:55.941Z,31.80
2022-08-29T12:54:31.136Z,32.00
2022-08-29T12:56:59.849Z,31.50
2022-08-29T12:59:29.599Z,30.90
2022-08-29T13:01:58.602Z,30.60
2022-08-29T13:04:30.962Z,30.80
2022-08-29T13:07:01.233Z,31.10
2022-08-29T13:09:29.807Z,31.10
2022-08-29T13:12:07.929Z,30.70
2022-08-29T13:14:48.190Z,30.60
2022-08-29T13:17:16.177Z,30.70
2022-08-29T13:19:58.848Z,30.70
2022-08-29T13:22:31.209Z,30.90
2022-08-29T13:25:03.450Z,30.80
2022-08-29T13:27:31.307Z,31.10
2022-08-29T13:30:01.839Z,30.90
2022-08-29T13:32:29.693Z,31.10
2022-08-29T13:35:00.961Z,31.30
2022-08-29T13:37:29.728Z,31.50
2022-08-29T13:39:57.597Z,31.40
2022-08-29T13:42:33.509Z,31.40
2022-08-29T13:45:19.146Z,31.40
2022-08-29T13:48:04.784Z,31.70
2022-08-29T13:50:33.860Z,32.00
2022-08-29T13:53:01.627Z,31.90
2022-08-29T13:55:29.754Z,31.70
2022-08-29T13:57:57.796Z,32.20
2022-08-29T14:00:35.106Z,32.30
2022-08-29T14:03:05.552Z,32.30
2022-08-29T14:05:35.562Z,32.10
2022-08-29T14:08:03.809Z,32.10
2022-08-29T14:10:31.849Z,32.60
2022-08-29T14:12:59.609Z,32.40
2022-08-29T14:15:27.336Z,32.40
2022-08-29T14:17:55.314Z,32.80
2022-08-29T14:20:23.085Z,32.50
2022-08-29T14:22:52.165Z,32.60
2022-08-29T14:25:21.202Z,32.60
2022-08-29T14:27:49.375Z,32.40
2022-08-29T14:30:18.098Z,32.40
2022-08-29T14:32:46.064Z,31.90
2022-08-29T14:35:17.107Z,32.10
2022-08-29T14:37:56.035Z,32.30
2022-08-29T14:40:25.640Z,32.20
2022-08-29T14:42:53.610Z,32.30
2022-08-29T14:45:21.848Z,32.70
2022-08-29T14:47:49.624Z,32.50
2022-08-29T14:50:17.718Z,32.50
2022-08-29T14:52:45.540Z,32.40
2022-08-29T14:55:14.944Z,32.60
2022-08-29T14:57:43.034Z,32.30
2022-08-29T15:00:13.280Z,32.20
2022-08-29T15:02:41.304Z,31.80
2022-08-29T15:05:09.442Z,31.70
2022-08-29T15:07:37.264Z,31.80
2022-08-29T15:10:06.068Z,31.40
2022-08-29T15:12:35.134Z,31.40
2022-08-29T15:15:03.058Z,31.40
2022-08-29T15:17:30.804Z,31.70
2022-08-29T15:22:46.361Z,31.50
2022-08-29T15:25:14.223Z,31.30
2022-08-29T15:27:43.417Z,30.80
2022-08-29T15:30:12.164Z,30.50
2022-08-29T15:32:40.708Z,30.10
2022-08-29T15:35:10.303Z,30.30
2022-08-29T15:37:43.329Z,30.50
2022-08-29T15:40:13.320Z,30.70
2022-08-29T15:42:42.897Z,30.80
2022-08-29T15:45:11.426Z,30.50
2022-08-29T15:47:39.649Z,30.50
2022-08-29T15:50:08.061Z,30.70
2022-08-29T15:52:36.251Z,30.80
2022-08-29T15:55:04.692Z,30.30
2022-08-29T15:57:32.463Z,30.20
2022-08-29T16:00:01.690Z,30.30
2022-08-29T16:02:29.469Z,30.20
2022-08-29T16:04:57.715Z,29.70
2022-08-29T16:07:29.266Z,29.40
2022-08-29T16:10:00.010Z,29.20
2022-08-29T16:12:28.278Z,28.80
2022-08-29T16:15:00.322Z,28.70
2022-08-29T16:17:31.275Z,28.30
2022-08-29T16:19:59.199Z,28.00
2022-08-29T16:22:27.658Z,27.80
2022-08-29T16:24:55.384Z,27.60
2022-08-29T16:27:24.382Z,27.50
2022-08-29T16:29:52.580Z,27.40
2022-08-29T16:32:20.636Z,27.10
2022-08-29T16:34:49.974Z,27.10
2022-08-29T16:37:18.802Z,27.10
2022-08-29T16:39:46.636Z,26.90
2022-08-29T16:42:14.353Z,26.70
2022-08-29T16:44:42.358Z,26.70
2022-08-29T16:47:11.076Z,26.70
2022-08-29T16:49:38.814Z,26.50
2022-08-29T16:52:07.931Z,26.40
2022-08-29T16:54:35.695Z,26.20
2022-08-29T16:57:03.499Z,26.10
2022-08-29T16:59:31.635Z,26.10
2022-08-29T17:02:00.552Z,26.00
2022-08-29T17:04:28.858Z,26.00
2022-08-29T17:06:57.178Z,25.90
2022-08-29T17:09:25.475Z,25.80
2022-08-29T17:11:52.839Z,25.70
2022-08-29T17:14:20.467Z,25.70
2022-08-29T17:16:49.541Z,25.60
2022-08-29T17:19:17.442Z,25.60
2022-08-29T17:21:45.565Z,25.50
2022-08-29T17:24:13.655Z,25.50
2022-08-29T17:26:45.151Z,25.50
2022-08-29T17:29:13.312Z,25.40
2022-08-29T17:31:41.372Z,25.30
2022-08-29T17:34:10.124Z,25.30
2022-08-29T17:36:39.891Z,25.10
2022-08-29T17:39:08.281Z,25.10
2022-08-29T17:41:37.289Z,25.00
2022-08-29T17:44:07.820Z,24.90
2022-08-29T17:46:35.945Z,24.90
2022-08-29T17:49:07.624Z,24.80
2022-08-29T17:51:35.919Z,24.70
2022-08-29T17:54:04.377Z,24.70
2022-08-29T17:56:41.928Z,24.70
2022-08-29T17:59:14.065Z,24.60
2022-08-29T18:01:42.161Z,24.60
2022-08-29T18:04:10.038Z,24.50
2022-08-29T18:06:37.834Z,24.40
2022-08-29T18:09:06.164Z,24.40
2022-08-29T18:11:34.069Z,24.30
2022-08-29T18:14:02.066Z,24.30
2022-08-29T18:16:31.200Z,24.20
2022-08-29T18:18:58.986Z,24.20
2022-08-29T18:21:27.115Z,24.10
2022-08-29T18:23:55.540Z,24.00
2022-08-29T18:26:23.665Z,23.90
2022-08-29T18:28:51.412Z,23.80
2022-08-29T18:31:19.851Z,23.70
2022-08-29T18:34:04.387Z,23.50
2022-08-29T18:36:32.884Z,23.40
2022-08-29T18:39:00.672Z,23.30
2022-08-29T18:41:28.533Z,23.20
2022-08-29T18:43:56.620Z,23.10
2022-08-29T18:46:24.465Z,23.10
2022-08-29T18:48:53.926Z,23.00
2022-08-29T18:51:21.698Z,23.00
2022-08-29T18:53:49.592Z,22.90
2022-08-29T18:56:17.349Z,22.90
2022-08-29T18:58:45.171Z,22.80
2022-08-29T19:01:14.314Z,22.80
2022-08-29T19:03:43.351Z,22.70
2022-08-29T19:06:13.711Z,22.70
2022-08-29T19:08:41.486Z,22.70
2022-08-29T19:11:11.167Z,22.50
2022-08-29T19:13:39.754Z,22.50
2022-08-29T19:16:09.472Z,22.50
2022-08-29T19:18:37.601Z,22.30
2022-08-29T19:21:06.421Z,22.20
2022-08-29T19:23:37.787Z,22.20
2022-08-29T19:26:07.084Z,22.20
2022-08-29T19:28:35.289Z,22.10
2022-08-29T19:31:03.199Z,22.10
2022-08-29T19:33:30.948Z,22.00
2022-08-29T19:35:58.693Z,22.00
2022-08-29T19:38:27.481Z,22.00
2022-08-29T19:40:59.115Z,21.90
2022-08-29T19:43:28.158Z,21.90
2022-08-29T19:45:56.669Z,21.80
2022-08-29T19:48:24.593Z,21.90
2022-08-29T19:50:53.953Z,21.80
2022-08-29T19:53:26.816Z,21.70
2022-08-29T19:55:55.483Z,21.50
2022-08-29T19:58:31.420Z,21.50
2022-08-29T20:01:00.459Z,21.40
2022-08-29T20:03:28.796Z,21.40
2022-08-29T20:05:57.117Z,21.30
2022-08-29T20:08:25.154Z,21.30
2022-08-29T20:10:53.378Z,21.20
2022-08-29T20:13:21.130Z,21.10
2022-08-29T20:15:51.067Z,21.10
2022-08-29T20:18:19.725Z,21.10
2022-08-29T20:20:47.873Z,21.10
2022-08-29T20:23:17.564Z,21.00
2022-08-29T20:25:45.755Z,20.90
2022-08-29T20:28:15.895Z,20.80
2022-08-29T20:30:44.312Z,20.80
2022-08-29T20:33:14.099Z,20.80
2022-08-29T20:36:04.609Z,20.80
2022-08-29T20:38:32.686Z,20.80
2022-08-29T20:41:00.582Z,20.80
2022-08-29T20:43:28.549Z,20.80
2022-08-29T20:45:59.865Z,20.80
2022-08-29T20:48:31.270Z,20.80
2022-08-29T20:50:59.703Z,20.80
2022-08-29T20:53:31.960Z,20.70
2022-08-29T20:56:00.614Z,20.70
2022-08-29T20:58:29.988Z,20.80
2022-08-29T21:00:58.199Z,20.80
2022-08-29T21:03:43.987Z,20.80
2022-08-29T21:06:13.990Z,20.80
2022-08-29T21:08:42.193Z,20.80
2022-08-29T21:11:10.145Z,20.80
2022-08-29T21:13:43.476Z,20.80
2022-08-29T21:16:12.040Z,20.80
2022-08-29T21:18:40.155Z,20.70
2022-08-29T21:21:08.037Z,20.70
2022-08-29T21:23:37.371Z,20.60
2022-08-29T21:26:05.104Z,20.60
2022-08-29T21:28:33.310Z,20.60
2022-08-29T21:31:03.858Z,20.50
2022-08-29T21:33:33.337Z,20.50
2022-08-29T21:36:01.607Z,20.50
2022-08-29T21:38:29.619Z,20.50
2022-08-29T21:40:58.951Z,20.40
2022-08-29T21:43:26.795Z,20.40
2022-08-29T21:45:54.771Z,20.40
2022-08-29T21:48:22.722Z,20.60
2022-08-29T21:50:54.656Z,20.90
2022-08-29T21:53:22.944Z,21.20
2022-08-29T21:55:50.668Z,21.40
2022-08-29T21:58:20.328Z,21.70
2022-08-29T22:00:49.217Z,21.60
2022-08-29T22:03:17.134Z,21.50
2022-08-29T22:05:45.099Z,21.50
2022-08-29T22:08:14.176Z,21.50
2022-08-29T22:10:42.560Z,21.60
2022-08-29T22:13:10.523Z,21.60
2022-08-29T22:15:57.265Z,21.60
2022-08-29T22:18:25.302Z,21.70
2022-08-29T22:20:55.734Z,21.70
2022-08-29T22:23:24.335Z,21.70
2022-08-29T22:25:52.709Z,21.70
2022-08-29T22:28:20.498Z,21.70
2022-08-29T22:30:49.968Z,21.70
2022-08-29T22:33:18.075Z,21.70
2022-08-29T22:35:46.454Z,21.80
2022-08-29T22:38:14.259Z,21.90
2022-08-29T22:40:44.296Z,21.90
2022-08-29T22:43:12.203Z,21.80
2022-08-29T22:45:40.865Z,21.80
2022-08-29T22:48:10.326Z,21.80
2022-08-29T22:50:39.701Z,21.60
2022-08-29T22:53:07.444Z,21.30
2022-08-29T22:55:35.507Z,21.20
2022-08-29T22:58:04.714Z,21.00
2022-08-29T23:00:32.465Z,21.00
2022-08-29T23:03:02.063Z,21.20
2022-08-29T23:05:31.231Z,21.30
2022-08-29T23:07:58.964Z,21.30
2022-08-29T23:10:26.725Z,21.30
2022-08-29T23:12:54.494Z,21.30
2022-08-29T23:15:22.286Z,21.30
2022-08-29T23:17:50.220Z,21.20
2022-08-29T23:20:19.224Z,21.10
2022-08-29T23:22:48.683Z,21.30
2022-08-29T23:25:16.542Z,21.20
2022-08-29T23:27:44.293Z,21.10
2022-08-29T23:30:12.939Z,21.10
2022-08-29T23:32:41.155Z,21.20
2022-08-29T23:35:09.171Z,21.30
2022-08-29T23:37:36.923Z,21.20
2022-08-29T23:40:07.135Z,21.10
2022-08-29T23:42:34.910Z,21.10
2022-08-29T23:45:02.634Z,20.80
2022-08-29T23:47:31.782Z,20.40
2022-08-29T23:49:59.625Z,20.20
2022-08-29T23:52:27.735Z,20.10
2022-08-29T23:54:55.480Z,20.00
2022-08-29T23:57:24.543Z,19.90
